Union, NJ

6:36 AM EDT on August 20, 2014 (GMT -0400)
Roselle Park | Change Station
CLOSE
Current Station
Personal Weather Station
Location: Roselle Park, NJ
Elevation: 90 ft
Nearby Weather Stations

Elev 90 ft 40.67 °N, 74.27 °W | Updated 57 seconds ago

Mostly Cloudy
Mostly Cloudy
67.8 °F
Feels Like 67.8 °F
N
0.0
Wind Variable Wind from South
Gusts 0.0 mph

Today
High -- | Low -- °F
--% Chance of Precip.
Yesterday
High -- | Low -- °F
Precip. -- in
6:12 AM 7:47 PM
Waning Crescent, 22% visible
Pressure 29.96 in
Visibility 10.0 miles
Clouds Mostly Cloudy 3500 ft
Mostly Cloudy 9000 ft
Dew Point 59 °F
Humidity 74%
Rainfall 0.00 in
Snow Depth Not available.
UV 0 out of 12
Pollen 9.40 out of 12
Air Quality Not available.
Flu Activity Not available.
METAR KEWR 200951Z 00000KT 10SM BKN035 BKN090 22/18 A2996 RMK AO2 SLP144 T02220178

More Conditions Fewer Conditions

Pressure 29.96 in
Visibility 10.0 miles
Clouds Mostly Cloudy 3500 ft
Mostly Cloudy 9000 ft
Dew Point 59 °F
Humidity 74%
Rainfall 0.00 in
Snow Depth Not available.
UV 0 out of 12
Pollen 9.40 out of 12
Air Quality Not available.
Flu Activity Not available.
METAR KEWR 200951Z 00000KT 10SM BKN035 BKN090 22/18 A2996 RMK AO2 SLP144 T02220178

More Conditions Fewer Conditions

10-Day Weather Forecast

Almanac

Astronomy

Aug. 20, 2014 Rise Set
Actual Time 6:12 AM EDT 7:47 PM EDT
Civil Twilight 5:43 AM EDT 8:16 PM EDT
Nautical Twilight 5:08 AM EDT 8:51 PM EDT
Astronomical Twilight 4:31 AM EDT 9:28 PM EDT
Moon 1:49 AM EDT 4:31 PM EDT
Length of Visible Light 14h 33m
Length of Day
13h 35m
Tomorrow will be 2m 27s shorter.
Waning Crescent, 22% of the Moon is Illuminated
Today
Waning Crescent
Aug 25
New
Sep 2
First Quarter
Sep 8
Full
Sep 15
Last Quarter

Today's Extremes

State Highs State Lows

Community

WunderPhotos

Upload Photos

1,745,604 photos uploaded!

Nearby

Snow Depth

Station Depth Elevation
No new snow has been reported.

Earthquake Activity

City Distance Mag. Time & Date
Deep River Center, Connecticut 102 miles 2.7 3:09 AM EDT
2014-08-14
Minimum magnitude displayed is 2.5.

Coastal Water Temperatures

Place Temperature
Sandy Hook, NJ 73.9 °F
The Battery, NY 72.0 °F
Bergen Point West Reach, NJ 73.0 °F
Kings Point, NY 72.0 °F

Nearby Weather Stations